Dickinson, Alabama
Current Conditions -  °F | °C
As of 10:12 PM on Friday 19 Dec 2014 (Local Time) from KGZH Reporting Station
Moderate Rain Moderate Rain  
Wind Chill:   Ceiling: 2000
Heat Index:   Visibility: 4mi
Dew Point:   Wind: 3mph
Humidity: 93%   Direction: 340°NNW
Pressure: 30.17"   Gusts: NA
Location:  31.77°N, 87.71°W
Report Text: KGZH 200412Z AUTO 34003KT 4SM RA BR SCT006 BKN020 OVC048 08/07 A3017 RMK AO2 P0002 T00830072
Loading
Personal Weather Stations






























Interactive Weather Map New forecast layout! Learn more

10-Day Weather Forecast

Advertisements
Track Severe Weather on mobile